Benito Buono — IBDH — position and weather

sailwx.info

Track history (hours):
 
Tides and Currents Weather Stations Pressure Air Temp Water Temp Dewpoint Dewpoint Depression Visibility Wind Speed Wind Dir Waves Ship Positions

Benito Buono

Last reported at 2017-Dec-16 11:22 UTC. Time now 2017-Dec-16 19:12 UTC.
Position N 40°50' E 014°16'.

Length 74 m; draft 4 m.

Type: Passenger vessel. MMSI: 247007400.

Date/timePositionNaut miles runAvg speedWind from/ knotsBaromVisibWave heightAir tempDewpointWater temp
2017-Dec-16 11:22N 40°50' E 014°16'3 7.0
2017-Dec-16 11:00N 40°48' E 014°14'511.1
2017-Dec-16 10:30N 40°46' E 014°08'611.0
2017-Dec-16 09:55N 40°44' E 013°60'2 0.1
2017-Dec-15 10:33N 40°46' E 014°01'1 9.8
2017-Dec-15 10:29N 40°46' E 014°02'4 7.4
2017-Dec-15 09:58N 40°48' E 014°06'2 1.4
2017-Dec-15 08:45N 40°49' E 014°07'2 9.6
2017-Dec-15 08:30N 40°47' E 014°06'8 0.5
2017-Dec-14 17:13N 40°45' E 013°56'1 2.7
2017-Dec-14 16:46N 40°45' E 013°58'310.1
2017-Dec-14 16:30N 40°46' E 014°01'4 8.6
2017-Dec-14 16:00N 40°48' E 014°06'2 2.0
2017-Dec-14 14:58N 40°46' E 014°04'510.7
2017-Dec-14 14:29N 40°45' E 013°57'1 0.9
2017-Dec-14 13:38N 40°46' E 013°58'210.0
2017-Dec-14 13:27N 40°46' E 014°00'5 8.8
2017-Dec-14 12:56N 40°48' E 014°06'1 0.7
2017-Dec-14 11:19N 40°49' E 014°06'3 9.5
2017-Dec-14 11:00N 40°46' E 014°04'5 3.9
2017-Dec-14 09:52N 40°46' E 013°58'4 9.9
2017-Dec-14 09:30N 40°47' E 014°03'4 7.9
2017-Dec-14 09:00N 40°49' E 014°07'0 0.2
2017-Dec-14 08:20N 40°49' E 014°07'3 9.7
2017-Dec-14 07:59N 40°46' E 014°05'610.7
2017-Dec-14 07:28N 40°45' E 013°58'1 2.5
2017-Dec-14 06:59N 40°45' E 013°56'4 8.2
2017-Dec-14 06:30N 40°46' E 014°01'4 0.3
2017-Dec-13 17:01N 40°45' E 013°56'0 0.0
2017-Dec-13 17:00N 40°45' E 013°56'4 7.5
2017-Dec-13 16:30N 40°46' E 014°01'5 8.9
2017-Dec-13 15:59N 40°48' E 014°06'1 2.1
2017-Dec-13 15:22N 40°49' E 014°07'4 9.3
2017-Dec-13 15:00N 40°46' E 014°05'5 4.5
2017-Dec-13 13:48N 40°45' E 013°58'310.7
2017-Dec-13 13:29N 40°46' E 014°02'5 2.1
2017-Dec-13 11:11N 40°49' E 014°07'2 9.5
2017-Dec-13 11:00N 40°48' E 014°06'610.1
2017-Dec-13 10:23N 40°46' E 013°58'2 4.2
2017-Dec-13 09:58N 40°45' E 013°56'4 6.4
2017-Dec-13 09:23N 40°46' E 014°01'410.2
2017-Dec-13 09:00N 40°47' E 014°06'3 3.9
2017-Dec-13 08:17N 40°49' E 014°07'3 9.8
2017-Dec-13 08:00N 40°47' E 014°06'7 0.4
2017-Dec-12 16:33N 40°45' E 013°57'310.4
2017-Dec-12 16:17N 40°46' E 014°01'3 9.8
2017-Dec-12 16:00N 40°46' E 014°04'4 2.8
2017-Dec-12 14:43N 40°49' E 014°07'0 0.3
2017-Dec-12 14:29N 40°49' E 014°07'0 0.0
2017-Dec-12 14:00N 40°49' E 014°07'0 0.0
2017-Dec-12 13:30N 40°49' E 014°07'0 0.0
2017-Dec-12 13:00N 40°49' E 014°07'0 0.0
2017-Dec-12 12:30N 40°49' E 014°07'0 0.0
2017-Dec-12 12:00N 40°49' E 014°07'0 0.0
2017-Dec-12 11:30N 40°49' E 014°07'0 0.0
2017-Dec-12 11:00N 40°49' E 014°07'0 0.0
2017-Dec-12 10:30N 40°49' E 014°07'0 0.0
2017-Dec-12 10:00N 40°49' E 014°07'1 0.9
2017-Dec-12 09:11N 40°49' E 014°06'211.2
2017-Dec-12 09:00N 40°47' E 014°06'4 7.3
2017-Dec-12 08:30N 40°46' E 014°01'3 3.6
2017-Dec-12 07:34N 40°45' E 013°57'110.4
2017-Dec-12 07:26N 40°46' E 013°58'4 9.0
2017-Dec-12 07:00N 40°46' E 014°04'4 0.1
2017-Dec-10 20:27N 40°46' E 013°58'510.5
2017-Dec-10 20:00N 40°46' E 014°04'4 2.8
2017-Dec-10 18:40N 40°49' E 014°07'210.0
2017-Dec-10 18:30N 40°48' E 014°06'7 3.8
2017-Dec-10 16:43N 40°45' E 013°58'210.7
2017-Dec-10 16:29N 40°46' E 014°01'4 8.8
2017-Dec-10 15:59N 40°48' E 014°06'2 1.9
2017-Dec-10 15:05N 40°49' E 014°07'1 9.3
2017-Dec-10 15:00N 40°49' E 014°06'4 8.6
2017-Dec-10 14:30N 40°47' E 014°01'4 7.2
2017-Dec-10 13:55N 40°45' E 013°56'2 3.6
2017-Dec-10 13:23N 40°46' E 013°58'410.6
2017-Dec-10 13:00N 40°46' E 014°04'4 2.3
2017-Dec-10 11:18N 40°49' E 014°07'310.1
2017-Dec-10 11:00N 40°47' E 014°06'7 5.1
2017-Dec-10 09:40N 40°45' E 013°57'210.7
2017-Dec-10 09:30N 40°46' E 013°59'510.8
2017-Dec-10 09:00N 40°47' E 014°06'3 4.1
2017-Dec-10 08:19N 40°49' E 014°07'3 9.7
2017-Dec-10 08:00N 40°46' E 014°06'510.4
2017-Dec-10 07:30N 40°46' E 013°59'2 3.6
2017-Dec-10 06:53N 40°45' E 013°56'0 0.0
2017-Dec-08 16:40N 40°45' E 013°56'4 9.6
2017-Dec-08 16:18N 40°46' E 014°00'310.4
2017-Dec-08 16:00N 40°46' E 014°05'3 4.1
2017-Dec-08 15:11N 40°49' E 014°07'2 9.5
2017-Dec-08 15:00N 40°48' E 014°06'710.0
2017-Dec-08 14:17N 40°45' E 013°57'1 2.1
2017-Dec-08 13:48N 40°45' E 013°56'4 9.1
2017-Dec-08 13:23N 40°46' E 014°01'4 9.8
2017-Dec-08 13:00N 40°47' E 014°06'3 1.5
2017-Dec-08 11:14N 40°49' E 014°07'210.1
2017-Dec-08 11:00N 40°47' E 014°06'7 5.7
2017-Dec-08 09:44N 40°45' E 013°57'310.7
2017-Dec-08 09:26N 40°46' E 014°01'5 8.9
2017-Dec-08 08:56N 40°48' E 014°06'1 2.2
2017-Dec-08 08:18N 40°49' E 014°07'310.5
2017-Dec-08 08:00N 40°46' E 014°06'4 0.2
2017-Dec-07 16:32N 40°46' E 014°01'010.8
2017-Dec-07 16:30N 40°46' E 014°01'4 3.2
2017-Dec-07 15:07N 40°48' E 014°06'111.0
2017-Dec-07 15:00N 40°47' E 014°06'7 4.4
2017-Dec-07 13:30N 40°45' E 013°58'510.9
2017-Dec-07 13:00N 40°46' E 014°05'1 0.7
2017-Dec-07 11:00N 40°47' E 014°06'7 5.2
2017-Dec-07 09:41N 40°45' E 013°58'310.7
2017-Dec-07 09:26N 40°46' E 014°01'4 9.5
2017-Dec-07 09:00N 40°47' E 014°06'5 3.6
2017-Dec-07 07:32N 40°46' E 013°59'110.8
2017-Dec-07 07:26N 40°46' E 013°58'  
Track history (hours):
 
Tides and Currents Weather Stations Pressure Air Temp Water Temp Dewpoint Dewpoint Depression Visibility Wind Speed Wind Dir Waves Ship Positions

Benito Buono

Last reported at 2017-Dec-16 11:22 UTC. Time now 2017-Dec-16 19:12 UTC.
Position N 40°50' E 014°16'.

Length 74 m; draft 4 m.

Type: Passenger vessel. MMSI: 247007400.

Date/timePositionNaut miles runAvg speedWind from/ knotsBaromVisibWave heightAir tempDewpointWater temp
2017-Dec-16 11:22N 40°50' E 014°16'3 7.0
2017-Dec-16 11:00N 40°48' E 014°14'511.1
2017-Dec-16 10:30N 40°46' E 014°08'611.0
2017-Dec-16 09:55N 40°44' E 013°60'2 0.1
2017-Dec-15 10:33N 40°46' E 014°01'1 9.8
2017-Dec-15 10:29N 40°46' E 014°02'4 7.4
2017-Dec-15 09:58N 40°48' E 014°06'2 1.4
2017-Dec-15 08:45N 40°49' E 014°07'2 9.6
2017-Dec-15 08:30N 40°47' E 014°06'8 0.5
2017-Dec-14 17:13N 40°45' E 013°56'1 2.7
2017-Dec-14 16:46N 40°45' E 013°58'310.1
2017-Dec-14 16:30N 40°46' E 014°01'4 8.6
2017-Dec-14 16:00N 40°48' E 014°06'2 2.0
2017-Dec-14 14:58N 40°46' E 014°04'510.7
2017-Dec-14 14:29N 40°45' E 013°57'1 0.9
2017-Dec-14 13:38N 40°46' E 013°58'210.0
2017-Dec-14 13:27N 40°46' E 014°00'5 8.8
2017-Dec-14 12:56N 40°48' E 014°06'1 0.7
2017-Dec-14 11:19N 40°49' E 014°06'3 9.5
2017-Dec-14 11:00N 40°46' E 014°04'5 3.9
2017-Dec-14 09:52N 40°46' E 013°58'4 9.9
2017-Dec-14 09:30N 40°47' E 014°03'4 7.9
2017-Dec-14 09:00N 40°49' E 014°07'0 0.2
2017-Dec-14 08:20N 40°49' E 014°07'3 9.7
2017-Dec-14 07:59N 40°46' E 014°05'610.7
2017-Dec-14 07:28N 40°45' E 013°58'1 2.5
2017-Dec-14 06:59N 40°45' E 013°56'4 8.2
2017-Dec-14 06:30N 40°46' E 014°01'4 0.3
2017-Dec-13 17:01N 40°45' E 013°56'0 0.0
2017-Dec-13 17:00N 40°45' E 013°56'4 7.5
2017-Dec-13 16:30N 40°46' E 014°01'5 8.9
2017-Dec-13 15:59N 40°48' E 014°06'1 2.1
2017-Dec-13 15:22N 40°49' E 014°07'4 9.3
2017-Dec-13 15:00N 40°46' E 014°05'5 4.5
2017-Dec-13 13:48N 40°45' E 013°58'310.7
2017-Dec-13 13:29N 40°46' E 014°02'5 2.1
2017-Dec-13 11:11N 40°49' E 014°07'2 9.5
2017-Dec-13 11:00N 40°48' E 014°06'610.1
2017-Dec-13 10:23N 40°46' E 013°58'2 4.2
2017-Dec-13 09:58N 40°45' E 013°56'4 6.4
2017-Dec-13 09:23N 40°46' E 014°01'410.2
2017-Dec-13 09:00N 40°47' E 014°06'3 3.9
2017-Dec-13 08:17N 40°49' E 014°07'3 9.8
2017-Dec-13 08:00N 40°47' E 014°06'7 0.4
2017-Dec-12 16:33N 40°45' E 013°57'310.4
2017-Dec-12 16:17N 40°46' E 014°01'3 9.8
2017-Dec-12 16:00N 40°46' E 014°04'4 2.8
2017-Dec-12 14:43N 40°49' E 014°07'0 0.3
2017-Dec-12 14:29N 40°49' E 014°07'0 0.0
2017-Dec-12 14:00N 40°49' E 014°07'0 0.0
2017-Dec-12 13:30N 40°49' E 014°07'0 0.0
2017-Dec-12 13:00N 40°49' E 014°07'0 0.0
2017-Dec-12 12:30N 40°49' E 014°07'0 0.0
2017-Dec-12 12:00N 40°49' E 014°07'0 0.0
2017-Dec-12 11:30N 40°49' E 014°07'0 0.0
2017-Dec-12 11:00N 40°49' E 014°07'0 0.0
2017-Dec-12 10:30N 40°49' E 014°07'0 0.0
2017-Dec-12 10:00N 40°49' E 014°07'1 0.9
2017-Dec-12 09:11N 40°49' E 014°06'211.2
2017-Dec-12 09:00N 40°47' E 014°06'4 7.3
2017-Dec-12 08:30N 40°46' E 014°01'3 3.6
2017-Dec-12 07:34N 40°45' E 013°57'110.4
2017-Dec-12 07:26N 40°46' E 013°58'4 9.0
2017-Dec-12 07:00N 40°46' E 014°04'4 0.1
2017-Dec-10 20:27N 40°46' E 013°58'510.5
2017-Dec-10 20:00N 40°46' E 014°04'4 2.8
2017-Dec-10 18:40N 40°49' E 014°07'210.0
2017-Dec-10 18:30N 40°48' E 014°06'7 3.8
2017-Dec-10 16:43N 40°45' E 013°58'210.7
2017-Dec-10 16:29N 40°46' E 014°01'4 8.8
2017-Dec-10 15:59N 40°48' E 014°06'2 1.9
2017-Dec-10 15:05N 40°49' E 014°07'1 9.3
2017-Dec-10 15:00N 40°49' E 014°06'4 8.6
2017-Dec-10 14:30N 40°47' E 014°01'4 7.2
2017-Dec-10 13:55N 40°45' E 013°56'2 3.6
2017-Dec-10 13:23N 40°46' E 013°58'410.6
2017-Dec-10 13:00N 40°46' E 014°04'4 2.3
2017-Dec-10 11:18N 40°49' E 014°07'310.1
2017-Dec-10 11:00N 40°47' E 014°06'7 5.1
2017-Dec-10 09:40N 40°45' E 013°57'210.7
2017-Dec-10 09:30N 40°46' E 013°59'510.8
2017-Dec-10 09:00N 40°47' E 014°06'3 4.1
2017-Dec-10 08:19N 40°49' E 014°07'3 9.7
2017-Dec-10 08:00N 40°46' E 014°06'510.4
2017-Dec-10 07:30N 40°46' E 013°59'2 3.6
2017-Dec-10 06:53N 40°45' E 013°56'0 0.0
2017-Dec-08 16:40N 40°45' E 013°56'4 9.6
2017-Dec-08 16:18N 40°46' E 014°00'310.4
2017-Dec-08 16:00N 40°46' E 014°05'3 4.1
2017-Dec-08 15:11N 40°49' E 014°07'2 9.5
2017-Dec-08 15:00N 40°48' E 014°06'710.0
2017-Dec-08 14:17N 40°45' E 013°57'1 2.1
2017-Dec-08 13:48N 40°45' E 013°56'4 9.1
2017-Dec-08 13:23N 40°46' E 014°01'4 9.8
2017-Dec-08 13:00N 40°47' E 014°06'3 1.5
2017-Dec-08 11:14N 40°49' E 014°07'210.1
2017-Dec-08 11:00N 40°47' E 014°06'7 5.7
2017-Dec-08 09:44N 40°45' E 013°57'310.7
2017-Dec-08 09:26N 40°46' E 014°01'5 8.9
2017-Dec-08 08:56N 40°48' E 014°06'1 2.2
2017-Dec-08 08:18N 40°49' E 014°07'310.5
2017-Dec-08 08:00N 40°46' E 014°06'4 0.2
2017-Dec-07 16:32N 40°46' E 014°01'010.8
2017-Dec-07 16:30N 40°46' E 014°01'4 3.2
2017-Dec-07 15:07N 40°48' E 014°06'111.0
2017-Dec-07 15:00N 40°47' E 014°06'7 4.4
2017-Dec-07 13:30N 40°45' E 013°58'510.9
2017-Dec-07 13:00N 40°46' E 014°05'1 0.7
2017-Dec-07 11:00N 40°47' E 014°06'7 5.2
2017-Dec-07 09:41N 40°45' E 013°58'310.7
2017-Dec-07 09:26N 40°46' E 014°01'4 9.5
2017-Dec-07 09:00N 40°47' E 014°06'5 3.6
2017-Dec-07 07:32N 40°46' E 013°59'110.8
2017-Dec-07 07:26N 40°46' E 013°58'  

Dump ship's entire track history